»·PEaware :: N1511H KLAS-KSBP

N1511H :: KLAS-KSBP

FLIGHT INFORMATION

Flight Status: Arrived
Operator: Privately registered:
United States
More flights under this callsign
Pilot: Phillip S. (23877)
Aircraft: EMBRAER PHENOM 300
(E55P)
More flights by this aircraft type
Origin: KLAS McCarran Intl
United States
Destination: KSBP San Luis Co Regl
United States
More flights between these airports :: More routes between these airports
Route: BOACH8 HEC PMD FIM RZS MQO
File this flight plan on PilotEdge
Remarks:
Altitude:
(Current/Filed)
34,000ft
Speed:
(Current/Filed)
425kts
Departed: 10-May-20 11:27 AM
Arrived: 10-May-20 12:46 PM
Distance/Time
Traveled:
272nm/1:19
Distance/Time
To Go:
Arrived

Flight Plot

Page will automatically refresh every two minutes.


Map Options




Map Legend


Flown Route
Filed Route
Departure Airport
Arrival Airport
Navaid (VOR, NDB)
Fix

Horizontal Profiles

Position Reports

Time Latitude Longitude Heading Altitude Ground
Speed
10-May-20 11:07 36.100411 -115.159201 8 2118ft 0kts
10-May-20 11:08 36.100411 -115.159201 8 2118ft 0kts
10-May-20 11:09 36.100411 -115.159201 8 2118ft 0kts
10-May-20 11:10 36.100411 -115.159201 8 2118ft 0kts
10-May-20 11:11 36.100411 -115.159201 8 2118ft 0kts
10-May-20 11:13 36.100411 -115.159201 8 2118ft 0kts
10-May-20 11:14 36.100411 -115.159201 8 2118ft 0kts
10-May-20 11:15 36.100411 -115.159201 8 2118ft 0kts
10-May-20 11:16 36.100411 -115.159201 8 2118ft 0kts
10-May-20 11:17 36.100411 -115.159201 8 2118ft 0kts
10-May-20 11:18 36.100411 -115.159201 8 2118ft 0kts
10-May-20 11:19 36.100411 -115.159201 8 2118ft 0kts
10-May-20 11:20 36.100409 -115.159202 8 2118ft 0kts
10-May-20 11:21 36.099968 -115.159279 8 2118ft 0kts
10-May-20 11:22 36.100138 -115.158946 118 2118ft 2kts
10-May-20 11:23 36.099870 -115.157835 74 2118ft 5kts
10-May-20 11:24 36.099900 -115.157587 89 2118ft 0kts
10-May-20 11:25 36.099898 -115.157502 94 2118ft 1kts
10-May-20 11:26 36.098811 -115.156957 202 2118ft 8kts
10-May-20 11:27 36.078772 -115.166898 197 2415ft 142kts
10-May-20 11:28 36.039207 -115.177554 223 6017ft 181kts
10-May-20 11:29 35.998448 -115.241635 236 7111ft 273kts
10-May-20 11:30 35.949625 -115.299126 196 8196ft 241kts
10-May-20 11:31 35.873055 -115.312644 180 11050ft 312kts
10-May-20 11:31 35.797700 -115.308449 175 13431ft 335kts
10-May-20 11:33 35.689267 -115.305511 202 16675ft 338kts
10-May-20 11:34 35.614290 -115.378561 225 18714ft 366kts
10-May-20 11:34 35.554436 -115.459724 227 18981ft 402kts
10-May-20 11:36 35.462786 -115.584245 227 19529ft 426kts
10-May-20 11:36 35.398771 -115.670331 227 21859ft 393kts
10-May-20 11:37 35.327844 -115.764342 227 24641ft 357kts
10-May-20 11:38 35.263501 -115.849489 228 27143ft 329kts
10-May-20 11:39 35.202266 -115.930536 228 28943ft 320kts
10-May-20 11:40 35.142850 -116.009060 229 30739ft 308kts
10-May-20 11:41 35.086094 -116.083927 229 32359ft 297kts
10-May-20 11:42 35.029086 -116.159038 230 33376ft 303kts
10-May-20 11:43 34.971065 -116.235305 230 34021ft 317kts
10-May-20 11:44 34.908277 -116.317691 229 34022ft 344kts
10-May-20 11:45 34.841022 -116.405571 229 34024ft 364kts
10-May-20 11:46 34.795008 -116.514261 257 34053ft 374kts
10-May-20 11:47 34.779236 -116.641469 261 34033ft 386kts
10-May-20 11:48 34.766371 -116.772528 261 34019ft 393kts
10-May-20 11:49 34.753320 -116.905187 261 34030ft 394kts
10-May-20 11:50 34.741744 -117.020750 261 34056ft 395kts
10-May-20 11:51 34.728258 -117.153383 261 34076ft 395kts
10-May-20 11:52 34.714568 -117.286305 261 34079ft 396kts
10-May-20 11:53 34.700674 -117.419644 261 34078ft 397kts
10-May-20 11:54 34.686602 -117.553192 261 34019ft 399kts
10-May-20 11:55 34.672402 -117.686590 260 34016ft 399kts
10-May-20 11:56 34.658054 -117.819949 260 34052ft 398kts
10-May-20 11:57 34.642347 -117.953431 261 34037ft 399kts
10-May-20 11:58 34.623544 -118.085372 250 34074ft 396kts
10-May-20 11:59 34.582867 -118.210012 246 34045ft 396kts
10-May-20 12:00 34.541525 -118.333973 246 34065ft 396kts
10-May-20 12:01 34.499995 -118.457869 246 34068ft 396kts
10-May-20 12:02 34.458354 -118.581605 246 34090ft 396kts
10-May-20 12:03 34.416599 -118.705183 246 34111ft 396kts
10-May-20 12:04 34.374799 -118.828412 246 34112ft 396kts
10-May-20 12:05 34.371158 -118.960942 278 34095ft 409kts
10-May-20 12:06 34.394481 -119.096326 277 34089ft 409kts
10-May-20 12:07 34.417656 -119.231185 277 34105ft 409kts
10-May-20 12:08 34.440802 -119.365954 276 34099ft 409kts
10-May-20 12:09 34.463843 -119.500887 276 34066ft 410kts
10-May-20 12:10 34.486765 -119.635913 276 32708ft 402kts
10-May-20 12:11 34.513535 -119.765437 291 30908ft 398kts
10-May-20 12:12 34.584976 -119.869291 307 29114ft 400kts
10-May-20 12:13 34.659741 -119.968618 307 27315ft 397kts
10-May-20 12:14 34.734622 -120.067710 307 25692ft 392kts
10-May-20 12:15 34.806978 -120.163606 307 24684ft 381kts
10-May-20 12:16 34.878336 -120.258443 308 23681ft 377kts
10-May-20 12:17 34.949152 -120.352805 308 22681ft 377kts
10-May-20 12:18 35.020046 -120.447529 308 21330ft 374kts
10-May-20 12:19 35.082211 -120.544319 289 19432ft 352kts
10-May-20 12:20 35.115029 -120.654870 281 17539ft 344kts
10-May-20 12:21 35.074691 -120.740847 208 15640ft 304kts
10-May-20 12:22 34.999717 -120.783711 203 13744ft 294kts
10-May-20 12:23 34.924767 -120.822557 192 11843ft 292kts
10-May-20 12:24 34.880430 -120.759565 68 10273ft 278kts
10-May-20 12:25 34.943686 -120.717715 15 9343ft 276kts
10-May-20 12:26 35.020144 -120.697313 9 7746ft 268kts
10-May-20 12:27 35.089528 -120.688640 1 6351ft 236kts
10-May-20 12:28 35.151901 -120.688520 20 5393ft 220kts
10-May-20 12:29 35.158813 -120.627438 147 4399ft 205kts
10-May-20 12:30 35.106349 -120.614653 173 4087ft 180kts
10-May-20 12:31 35.058774 -120.607764 173 4085ft 165kts
10-May-20 12:32 35.017649 -120.592783 106 4074ft 163kts
10-May-20 12:33 35.041527 -120.546918 48 4005ft 170kts
10-May-20 12:34 35.073108 -120.504251 49 3998ft 167kts
10-May-20 12:35 35.105273 -120.463471 28 3997ft 169kts
10-May-20 12:36 35.143352 -120.483765 301 3926ft 170kts
10-May-20 12:37 35.128811 -120.519101 149 3233ft 184kts
10-May-20 12:38 35.126070 -120.460295 94 2953ft 178kts
10-May-20 12:39 35.092278 -120.437739 216 2906ft 167kts
10-May-20 12:40 35.107947 -120.477220 333 2902ft 170kts
10-May-20 12:41 35.149600 -120.503429 332 2898ft 167kts
10-May-20 12:42 35.181640 -120.543216 306 2658ft 169kts
10-May-20 12:43 35.207269 -120.589111 301 1994ft 158kts
10-May-20 12:44 35.231473 -120.631017 306 304ft 115kts
10-May-20 12:45 35.240821 -120.647005 315 215ft 9kts
10-May-20 12:46 35.241577 -120.646006 79 215ft 0kts
10-May-20 12:47 35.241578 -120.646003 79 215ft 0kts
10-May-20 12:48 35.241578 -120.646000 79 215ft 0kts
10-May-20 12:49 35.241578 -120.645997 79 215ft 0kts
10-May-20 12:50 35.241579 -120.645994 79 215ft 0kts
10-May-20 12:51 35.241579 -120.645991 79 215ft 0kts
10-May-20 12:52 35.241580 -120.645988 79 215ft 0kts
10-May-20 12:53 35.241580 -120.645985 79 215ft 0kts
10-May-20 12:54 35.241581 -120.645982 79 215ft 0kts
10-May-20 12:55 35.241581 -120.645979 79 215ft 0kts
10-May-20 12:56 35.241582 -120.645975 79 215ft 0kts
10-May-20 12:57 35.241582 -120.645972 79 215ft 0kts
10-May-20 12:58 35.241583 -120.645969 79 215ft 0kts
10-May-20 12:59 35.241583 -120.645966 79 215ft 0kts
10-May-20 13:00 35.241584 -120.645963 79 215ft 0kts

Navigation Log

Ident Type
Flight plan parsing failed, navigation log unavailable